sensor_id;sensor_type;location;lat;lon;timestamp;P1;durP1;ratioP1;P2;durP2;ratioP2
10418;SDS011;5256;48.728;9.140;2022-09-03T00:02:38;0.20;;;0.20;;
10418;SDS011;5256;48.728;9.140;2022-09-03T00:07:44;0.27;;;0.27;;
10418;SDS011;5256;48.728;9.140;2022-09-03T00:10:33;0.20;;;0.20;;
10418;SDS011;5256;48.728;9.140;2022-09-03T00:13:08;0.30;;;0.30;;
10418;SDS011;5256;48.728;9.140;2022-09-03T00:15:38;0.30;;;0.30;;
10418;SDS011;5256;48.728;9.140;2022-09-03T00:18:09;0.30;;;0.30;;
10418;SDS011;5256;48.728;9.140;2022-09-03T00:20:44;0.30;;;0.30;;
10418;SDS011;5256;48.728;9.140;2022-09-03T00:23:23;0.30;;;0.30;;
10418;SDS011;5256;48.728;9.140;2022-09-03T00:31:34;0.30;;;0.30;;
10418;SDS011;5256;48.728;9.140;2022-09-03T00:34:25;0.30;;;0.30;;
10418;SDS011;5256;48.728;9.140;2022-09-03T00:37:14;0.40;;;0.40;;
10418;SDS011;5256;48.728;9.140;2022-09-03T00:39:40;0.30;;;0.30;;
10418;SDS011;5256;48.728;9.140;2022-09-03T00:42:10;0.30;;;0.30;;
10418;SDS011;5256;48.728;9.140;2022-09-03T00:47:46;0.23;;;0.23;;
10418;SDS011;5256;48.728;9.140;2022-09-03T00:56:04;0.30;;;0.30;;
10418;SDS011;5256;48.728;9.140;2022-09-03T00:59:05;0.27;;;0.27;;
10418;SDS011;5256;48.728;9.140;2022-09-03T01:04:56;0.20;;;0.20;;
10418;SDS011;5256;48.728;9.140;2022-09-03T01:07:49;0.30;;;0.30;;
10418;SDS011;5256;48.728;9.140;2022-09-03T01:10:45;0.30;;;0.30;;
10418;SDS011;5256;48.728;9.140;2022-09-03T01:13:23;0.30;;;0.30;;
10418;SDS011;5256;48.728;9.140;2022-09-03T01:18:53;0.30;;;0.30;;
10418;SDS011;5256;48.728;9.140;2022-09-03T01:24:18;0.30;;;0.30;;
10418;SDS011;5256;48.728;9.140;2022-09-03T01:27:16;0.23;;;0.23;;
10418;SDS011;5256;48.728;9.140;2022-09-03T01:29:55;0.30;;;0.30;;
10418;SDS011;5256;48.728;9.140;2022-09-03T01:32:27;0.33;;;0.33;;
10418;SDS011;5256;48.728;9.140;2022-09-03T01:56:44;0.30;;;0.30;;
10418;SDS011;5256;48.728;9.140;2022-09-03T01:59:34;0.30;;;0.30;;
10418;SDS011;5256;48.728;9.140;2022-09-03T02:02:17;0.23;;;0.23;;
10418;SDS011;5256;48.728;9.140;2022-09-03T02:04:59;0.23;;;0.23;;
10418;SDS011;5256;48.728;9.140;2022-09-03T02:07:41;0.30;;;0.30;;
10418;SDS011;5256;48.728;9.140;2022-09-03T02:10:16;0.37;;;0.37;;
10418;SDS011;5256;48.728;9.140;2022-09-03T02:12:55;0.40;;;0.40;;
10418;SDS011;5256;48.728;9.140;2022-09-03T02:15:25;0.20;;;0.20;;
10418;SDS011;5256;48.728;9.140;2022-09-03T02:17:52;0.23;;;0.23;;
10418;SDS011;5256;48.728;9.140;2022-09-03T02:20:24;0.30;;;0.30;;
10418;SDS011;5256;48.728;9.140;2022-09-03T02:22:52;0.30;;;0.30;;
10418;SDS011;5256;48.728;9.140;2022-09-03T02:25:21;0.27;;;0.27;;
10418;SDS011;5256;48.728;9.140;2022-09-03T02:27:50;0.30;;;0.30;;
10418;SDS011;5256;48.728;9.140;2022-09-03T02:30:16;0.23;;;0.23;;
10418;SDS011;5256;48.728;9.140;2022-09-03T02:32:42;0.30;;;0.30;;
10418;SDS011;5256;48.728;9.140;2022-09-03T02:35:08;0.27;;;0.27;;
10418;SDS011;5256;48.728;9.140;2022-09-03T02:37:34;0.30;;;0.30;;
10418;SDS011;5256;48.728;9.140;2022-09-03T02:39:59;0.30;;;0.30;;
10418;SDS011;5256;48.728;9.140;2022-09-03T02:42:25;0.40;;;0.40;;
10418;SDS011;5256;48.728;9.140;2022-09-03T02:44:52;0.33;;;0.33;;
10418;SDS011;5256;48.728;9.140;2022-09-03T02:47:22;0.30;;;0.30;;
10418;SDS011;5256;48.728;9.140;2022-09-03T02:49:54;0.20;;;0.20;;
10418;SDS011;5256;48.728;9.140;2022-09-03T02:52:20;0.30;;;0.30;;
10418;SDS011;5256;48.728;9.140;2022-09-03T02:54:45;0.30;;;0.30;;
10418;SDS011;5256;48.728;9.140;2022-09-03T02:57:12;0.30;;;0.30;;
10418;SDS011;5256;48.728;9.140;2022-09-03T02:59:39;0.30;;;0.30;;
10418;SDS011;5256;48.728;9.140;2022-09-03T03:02:08;0.22;;;0.22;;
10418;SDS011;5256;48.728;9.140;2022-09-03T03:04:34;0.40;;;0.40;;
10418;SDS011;5256;48.728;9.140;2022-09-03T03:07:00;0.20;;;0.20;;
10418;SDS011;5256;48.728;9.140;2022-09-03T03:09:25;0.30;;;0.30;;
10418;SDS011;5256;48.728;9.140;2022-09-03T03:11:51;0.23;;;0.23;;
10418;SDS011;5256;48.728;9.140;2022-09-03T03:14:19;0.27;;;0.27;;
10418;SDS011;5256;48.728;9.140;2022-09-03T03:16:45;0.27;;;0.27;;
10418;SDS011;5256;48.728;9.140;2022-09-03T03:19:11;0.30;;;0.30;;
10418;SDS011;5256;48.728;9.140;2022-09-03T03:21:37;0.20;;;0.20;;
10418;SDS011;5256;48.728;9.140;2022-09-03T03:24:02;0.30;;;0.30;;
10418;SDS011;5256;48.728;9.140;2022-09-03T03:26:28;0.30;;;0.30;;
10418;SDS011;5256;48.728;9.140;2022-09-03T03:28:55;0.30;;;0.30;;
10418;SDS011;5256;48.728;9.140;2022-09-03T03:31:22;0.30;;;0.30;;
10418;SDS011;5256;48.728;9.140;2022-09-03T03:33:52;0.30;;;0.30;;
10418;SDS011;5256;48.728;9.140;2022-09-03T03:36:18;0.30;;;0.30;;
10418;SDS011;5256;48.728;9.140;2022-09-03T03:38:45;0.20;;;0.20;;
10418;SDS011;5256;48.728;9.140;2022-09-03T03:41:15;0.20;;;0.20;;
10418;SDS011;5256;48.728;9.140;2022-09-03T03:43:42;0.30;;;0.30;;
10418;SDS011;5256;48.728;9.140;2022-09-03T03:46:08;0.30;;;0.30;;
10418;SDS011;5256;48.728;9.140;2022-09-03T03:48:34;0.40;;;0.40;;
10418;SDS011;5256;48.728;9.140;2022-09-03T03:51:05;0.20;;;0.20;;
10418;SDS011;5256;48.728;9.140;2022-09-03T03:53:33;0.30;;;0.30;;
10418;SDS011;5256;48.728;9.140;2022-09-03T03:56:00;0.30;;;0.30;;
10418;SDS011;5256;48.728;9.140;2022-09-03T03:58:30;0.30;;;0.30;;
10418;SDS011;5256;48.728;9.140;2022-09-03T04:01:03;0.20;;;0.20;;
10418;SDS011;5256;48.728;9.140;2022-09-03T04:03:30;0.30;;;0.30;;
10418;SDS011;5256;48.728;9.140;2022-09-03T04:05:56;0.30;;;0.30;;
10418;SDS011;5256;48.728;9.140;2022-09-03T04:08:23;0.40;;;0.40;;
10418;SDS011;5256;48.728;9.140;2022-09-03T04:10:49;0.30;;;0.30;;
10418;SDS011;5256;48.728;9.140;2022-09-03T04:13:15;0.30;;;0.30;;
10418;SDS011;5256;48.728;9.140;2022-09-03T04:15:41;0.37;;;0.37;;
10418;SDS011;5256;48.728;9.140;2022-09-03T04:18:06;0.30;;;0.30;;
10418;SDS011;5256;48.728;9.140;2022-09-03T04:20:32;0.40;;;0.40;;
10418;SDS011;5256;48.728;9.140;2022-09-03T04:23:00;0.20;;;0.20;;
10418;SDS011;5256;48.728;9.140;2022-09-03T04:25:26;0.30;;;0.30;;
10418;SDS011;5256;48.728;9.140;2022-09-03T04:27:52;0.30;;;0.30;;
10418;SDS011;5256;48.728;9.140;2022-09-03T04:30:18;0.30;;;0.30;;
10418;SDS011;5256;48.728;9.140;2022-09-03T04:32:43;0.30;;;0.30;;
10418;SDS011;5256;48.728;9.140;2022-09-03T04:35:22;0.30;;;0.30;;
10418;SDS011;5256;48.728;9.140;2022-09-03T04:37:50;0.30;;;0.30;;
10418;SDS011;5256;48.728;9.140;2022-09-03T04:40:15;0.33;;;0.33;;
10418;SDS011;5256;48.728;9.140;2022-09-03T04:42:41;0.20;;;0.20;;
10418;SDS011;5256;48.728;9.140;2022-09-03T04:45:07;0.27;;;0.27;;
10418;SDS011;5256;48.728;9.140;2022-09-03T04:47:33;0.30;;;0.30;;
10418;SDS011;5256;48.728;9.140;2022-09-03T04:50:01;0.30;;;0.30;;
10418;SDS011;5256;48.728;9.140;2022-09-03T04:52:28;0.33;;;0.33;;
10418;SDS011;5256;48.728;9.140;2022-09-03T04:54:55;0.30;;;0.30;;
10418;SDS011;5256;48.728;9.140;2022-09-03T04:57:24;0.30;;;0.30;;
10418;SDS011;5256;48.728;9.140;2022-09-03T04:59:50;0.30;;;0.30;;
10418;SDS011;5256;48.728;9.140;2022-09-03T05:02:16;0.27;;;0.27;;
10418;SDS011;5256;48.728;9.140;2022-09-03T05:04:41;0.30;;;0.30;;
10418;SDS011;5256;48.728;9.140;2022-09-03T05:07:07;0.30;;;0.30;;
10418;SDS011;5256;48.728;9.140;2022-09-03T05:09:32;0.33;;;0.33;;
10418;SDS011;5256;48.728;9.140;2022-09-03T05:11:58;0.30;;;0.30;;
10418;SDS011;5256;48.728;9.140;2022-09-03T05:14:24;0.30;;;0.30;;
10418;SDS011;5256;48.728;9.140;2022-09-03T05:16:50;0.33;;;0.33;;
10418;SDS011;5256;48.728;9.140;2022-09-03T05:19:16;0.37;;;0.37;;
10418;SDS011;5256;48.728;9.140;2022-09-03T05:21:41;0.30;;;0.30;;
10418;SDS011;5256;48.728;9.140;2022-09-03T05:24:07;0.30;;;0.30;;
10418;SDS011;5256;48.728;9.140;2022-09-03T05:26:35;0.30;;;0.30;;
10418;SDS011;5256;48.728;9.140;2022-09-03T05:29:03;0.40;;;0.40;;
10418;SDS011;5256;48.728;9.140;2022-09-03T05:31:34;0.20;;;0.20;;
10418;SDS011;5256;48.728;9.140;2022-09-03T05:34:02;0.33;;;0.33;;
10418;SDS011;5256;48.728;9.140;2022-09-03T05:36:30;0.30;;;0.30;;
10418;SDS011;5256;48.728;9.140;2022-09-03T05:39:00;0.30;;;0.30;;
10418;SDS011;5256;48.728;9.140;2022-09-03T05:41:26;0.30;;;0.30;;
10418;SDS011;5256;48.728;9.140;2022-09-03T05:43:53;0.30;;;0.30;;
10418;SDS011;5256;48.728;9.140;2022-09-03T05:46:20;0.20;;;0.20;;
10418;SDS011;5256;48.728;9.140;2022-09-03T05:48:55;0.30;;;0.30;;
10418;SDS011;5256;48.728;9.140;2022-09-03T05:51:22;0.20;;;0.20;;
10418;SDS011;5256;48.728;9.140;2022-09-03T05:53:48;0.30;;;0.30;;
10418;SDS011;5256;48.728;9.140;2022-09-03T05:56:15;0.30;;;0.30;;
10418;SDS011;5256;48.728;9.140;2022-09-03T05:58:44;0.30;;;0.30;;
10418;SDS011;5256;48.728;9.140;2022-09-03T06:01:12;0.30;;;0.30;;
10418;SDS011;5256;48.728;9.140;2022-09-03T06:03:40;0.40;;;0.40;;
10418;SDS011;5256;48.728;9.140;2022-09-03T06:06:06;0.30;;;0.30;;
10418;SDS011;5256;48.728;9.140;2022-09-03T06:08:33;0.20;;;0.20;;
10418;SDS011;5256;48.728;9.140;2022-09-03T06:11:00;0.30;;;0.30;;
10418;SDS011;5256;48.728;9.140;2022-09-03T06:13:28;0.30;;;0.30;;
10418;SDS011;5256;48.728;9.140;2022-09-03T06:15:58;0.30;;;0.30;;
10418;SDS011;5256;48.728;9.140;2022-09-03T06:18:28;0.30;;;0.30;;
10418;SDS011;5256;48.728;9.140;2022-09-03T06:20:54;0.30;;;0.30;;
10418;SDS011;5256;48.728;9.140;2022-09-03T06:23:24;0.20;;;0.20;;
10418;SDS011;5256;48.728;9.140;2022-09-03T06:28:30;0.30;;;0.30;;
10418;SDS011;5256;48.728;9.140;2022-09-03T06:30:58;0.30;;;0.30;;
10418;SDS011;5256;48.728;9.140;2022-09-03T06:33:25;0.20;;;0.20;;
10418;SDS011;5256;48.728;9.140;2022-09-03T06:35:54;0.20;;;0.20;;
10418;SDS011;5256;48.728;9.140;2022-09-03T06:38:23;0.30;;;0.30;;
10418;SDS011;5256;48.728;9.140;2022-09-03T06:40:51;0.30;;;0.30;;
10418;SDS011;5256;48.728;9.140;2022-09-03T06:43:20;0.30;;;0.30;;
10418;SDS011;5256;48.728;9.140;2022-09-03T06:45:56;0.20;;;0.20;;
10418;SDS011;5256;48.728;9.140;2022-09-03T06:48:24;0.20;;;0.20;;
10418;SDS011;5256;48.728;9.140;2022-09-03T06:51:09;0.20;;;0.20;;
10418;SDS011;5256;48.728;9.140;2022-09-03T06:53:37;0.30;;;0.30;;
10418;SDS011;5256;48.728;9.140;2022-09-03T06:56:08;0.20;;;0.20;;
10418;SDS011;5256;48.728;9.140;2022-09-03T06:58:36;0.20;;;0.20;;
10418;SDS011;5256;48.728;9.140;2022-09-03T07:01:05;0.20;;;0.20;;
10418;SDS011;5256;48.728;9.140;2022-09-03T07:03:42;0.20;;;0.20;;
10418;SDS011;5256;48.728;9.140;2022-09-03T07:06:11;0.20;;;0.20;;
10418;SDS011;5256;48.728;9.140;2022-09-03T07:08:38;0.20;;;0.20;;
10418;SDS011;5256;48.728;9.140;2022-09-03T07:11:05;0.20;;;0.20;;
10418;SDS011;5256;48.728;9.140;2022-09-03T07:13:35;0.20;;;0.20;;
10418;SDS011;5256;48.728;9.140;2022-09-03T07:16:07;0.30;;;0.30;;
10418;SDS011;5256;48.728;9.140;2022-09-03T07:18:34;0.20;;;0.20;;
10418;SDS011;5256;48.728;9.140;2022-09-03T07:21:00;0.37;;;0.37;;
10418;SDS011;5256;48.728;9.140;2022-09-03T07:23:28;0.30;;;0.30;;
10418;SDS011;5256;48.728;9.140;2022-09-03T07:25:55;0.20;;;0.20;;
10418;SDS011;5256;48.728;9.140;2022-09-03T07:28:21;0.30;;;0.30;;
10418;SDS011;5256;48.728;9.140;2022-09-03T07:30:48;0.20;;;0.20;;
10418;SDS011;5256;48.728;9.140;2022-09-03T07:33:15;0.30;;;0.30;;
10418;SDS011;5256;48.728;9.140;2022-09-03T07:35:41;0.20;;;0.20;;
10418;SDS011;5256;48.728;9.140;2022-09-03T07:38:06;0.30;;;0.30;;
10418;SDS011;5256;48.728;9.140;2022-09-03T07:40:33;0.20;;;0.20;;
10418;SDS011;5256;48.728;9.140;2022-09-03T07:42:59;0.20;;;0.20;;
10418;SDS011;5256;48.728;9.140;2022-09-03T07:45:29;0.10;;;0.10;;
10418;SDS011;5256;48.728;9.140;2022-09-03T07:47:55;0.20;;;0.20;;
10418;SDS011;5256;48.728;9.140;2022-09-03T07:50:21;0.10;;;0.10;;
10418;SDS011;5256;48.728;9.140;2022-09-03T07:52:46;0.20;;;0.20;;
10418;SDS011;5256;48.728;9.140;2022-09-03T07:55:12;0.23;;;0.23;;
10418;SDS011;5256;48.728;9.140;2022-09-03T07:57:38;0.20;;;0.20;;
10418;SDS011;5256;48.728;9.140;2022-09-03T08:00:04;0.10;;;0.10;;
10418;SDS011;5256;48.728;9.140;2022-09-03T08:02:34;0.20;;;0.20;;
10418;SDS011;5256;48.728;9.140;2022-09-03T08:05:00;0.20;;;0.20;;
10418;SDS011;5256;48.728;9.140;2022-09-03T08:07:27;0.20;;;0.20;;
10418;SDS011;5256;48.728;9.140;2022-09-03T08:09:54;0.20;;;0.20;;
10418;SDS011;5256;48.728;9.140;2022-09-03T08:12:20;0.20;;;0.20;;
10418;SDS011;5256;48.728;9.140;2022-09-03T08:14:45;0.30;;;0.30;;
10418;SDS011;5256;48.728;9.140;2022-09-03T08:17:12;0.20;;;0.20;;
10418;SDS011;5256;48.728;9.140;2022-09-03T08:19:37;0.20;;;0.20;;
10418;SDS011;5256;48.728;9.140;2022-09-03T08:22:05;0.20;;;0.20;;
10418;SDS011;5256;48.728;9.140;2022-09-03T08:24:30;0.10;;;0.10;;
10418;SDS011;5256;48.728;9.140;2022-09-03T08:26:57;0.20;;;0.20;;
10418;SDS011;5256;48.728;9.140;2022-09-03T08:29:23;0.20;;;0.20;;
10418;SDS011;5256;48.728;9.140;2022-09-03T08:31:52;0.10;;;0.10;;
10418;SDS011;5256;48.728;9.140;2022-09-03T08:34:17;0.20;;;0.20;;
10418;SDS011;5256;48.728;9.140;2022-09-03T08:36:44;0.10;;;0.10;;
10418;SDS011;5256;48.728;9.140;2022-09-03T08:39:11;0.20;;;0.20;;
10418;SDS011;5256;48.728;9.140;2022-09-03T08:49:33;0.10;;;0.10;;
10418;SDS011;5256;48.728;9.140;2022-09-03T08:57:59;0.10;;;0.10;;
10418;SDS011;5256;48.728;9.140;2022-09-03T09:09:22;0.10;;;0.10;;
10418;SDS011;5256;48.728;9.140;2022-09-03T09:15:09;0.10;;;0.10;;
10418;SDS011;5256;48.728;9.140;2022-09-03T09:17:53;0.10;;;0.10;;
10418;SDS011;5256;48.728;9.140;2022-09-03T09:23:03;0.20;;;0.20;;
10418;SDS011;5256;48.728;9.140;2022-09-03T09:25:31;0.10;;;0.10;;
10418;SDS011;5256;48.728;9.140;2022-09-03T09:30:35;0.10;;;0.10;;
10418;SDS011;5256;48.728;9.140;2022-09-03T09:33:01;0.10;;;0.10;;
10418;SDS011;5256;48.728;9.140;2022-09-03T09:35:27;0.10;;;0.10;;
10418;SDS011;5256;48.728;9.140;2022-09-03T09:37:53;0.10;;;0.10;;
10418;SDS011;5256;48.728;9.140;2022-09-03T09:40:22;0.23;;;0.23;;
10418;SDS011;5256;48.728;9.140;2022-09-03T09:42:50;0.10;;;0.10;;
10418;SDS011;5256;48.728;9.140;2022-09-03T09:45:22;0.20;;;0.20;;
10418;SDS011;5256;48.728;9.140;2022-09-03T09:47:48;0.10;;;0.10;;
10418;SDS011;5256;48.728;9.140;2022-09-03T09:50:19;0.10;;;0.10;;
10418;SDS011;5256;48.728;9.140;2022-09-03T09:52:46;0.10;;;0.10;;
10418;SDS011;5256;48.728;9.140;2022-09-03T09:55:15;0.13;;;0.13;;
10418;SDS011;5256;48.728;9.140;2022-09-03T09:57:43;0.10;;;0.10;;
10418;SDS011;5256;48.728;9.140;2022-09-03T10:00:11;0.20;;;0.20;;
10418;SDS011;5256;48.728;9.140;2022-09-03T10:02:39;0.10;;;0.10;;
10418;SDS011;5256;48.728;9.140;2022-09-03T10:05:13;0.10;;;0.10;;
10418;SDS011;5256;48.728;9.140;2022-09-03T10:07:53;0.10;;;0.10;;
10418;SDS011;5256;48.728;9.140;2022-09-03T10:10:23;0.13;;;0.13;;
10418;SDS011;5256;48.728;9.140;2022-09-03T10:13:01;0.20;;;0.20;;
10418;SDS011;5256;48.728;9.140;2022-09-03T10:15:38;0.10;;;0.10;;
10418;SDS011;5256;48.728;9.140;2022-09-03T10:18:16;0.13;;;0.13;;
10418;SDS011;5256;48.728;9.140;2022-09-03T10:21:04;0.10;;;0.10;;
10418;SDS011;5256;48.728;9.140;2022-09-03T10:26:53;0.20;;;0.20;;
10418;SDS011;5256;48.728;9.140;2022-09-03T10:29:20;0.10;;;0.10;;
10418;SDS011;5256;48.728;9.140;2022-09-03T10:31:55;0.20;;;0.20;;
10418;SDS011;5256;48.728;9.140;2022-09-03T10:39:58;0.20;;;0.20;;
10418;SDS011;5256;48.728;9.140;2022-09-03T10:45:38;0.20;;;0.20;;
10418;SDS011;5256;48.728;9.140;2022-09-03T10:51:35;0.10;;;0.10;;
10418;SDS011;5256;48.728;9.140;2022-09-03T11:03:09;0.20;;;0.20;;
10418;SDS011;5256;48.728;9.140;2022-09-03T11:05:22;0.10;;;0.10;;
10418;SDS011;5256;48.728;9.140;2022-09-03T11:07:56;0.10;;;0.10;;
10418;SDS011;5256;48.728;9.140;2022-09-03T11:10:31;0.10;;;0.10;;
10418;SDS011;5256;48.728;9.140;2022-09-03T11:18:26;0.10;;;0.10;;
10418;SDS011;5256;48.728;9.140;2022-09-03T11:21:01;0.10;;;0.10;;
10418;SDS011;5256;48.728;9.140;2022-09-03T11:23:32;0.10;;;0.10;;
10418;SDS011;5256;48.728;9.140;2022-09-03T11:26:03;0.10;;;0.10;;
10418;SDS011;5256;48.728;9.140;2022-09-03T11:28:42;0.20;;;0.20;;
10418;SDS011;5256;48.728;9.140;2022-09-03T11:31:20;0.20;;;0.20;;
10418;SDS011;5256;48.728;9.140;2022-09-03T11:34:12;0.10;;;0.10;;
10418;SDS011;5256;48.728;9.140;2022-09-03T11:36:39;0.20;;;0.20;;
10418;SDS011;5256;48.728;9.140;2022-09-03T11:39:13;0.10;;;0.10;;
10418;SDS011;5256;48.728;9.140;2022-09-03T11:41:57;0.10;;;0.10;;
10418;SDS011;5256;48.728;9.140;2022-09-03T11:44:23;0.13;;;0.13;;
10418;SDS011;5256;48.728;9.140;2022-09-03T11:47:11;0.13;;;0.13;;
10418;SDS011;5256;48.728;9.140;2022-09-03T11:49:46;0.20;;;0.20;;
10418;SDS011;5256;48.728;9.140;2022-09-03T11:52:30;0.10;;;0.10;;
10418;SDS011;5256;48.728;9.140;2022-09-03T11:55:04;0.20;;;0.20;;
10418;SDS011;5256;48.728;9.140;2022-09-03T11:57:31;0.10;;;0.10;;
10418;SDS011;5256;48.728;9.140;2022-09-03T12:00:07;0.10;;;0.10;;
10418;SDS011;5256;48.728;9.140;2022-09-03T12:02:43;0.10;;;0.10;;
10418;SDS011;5256;48.728;9.140;2022-09-03T12:05:20;0.20;;;0.20;;
10418;SDS011;5256;48.728;9.140;2022-09-03T12:17:05;0.20;;;0.20;;
10418;SDS011;5256;48.728;9.140;2022-09-03T12:22:17;0.27;;;0.27;;
10418;SDS011;5256;48.728;9.140;2022-09-03T12:24:44;0.20;;;0.20;;
10418;SDS011;5256;48.728;9.140;2022-09-03T12:27:11;0.20;;;0.20;;
10418;SDS011;5256;48.728;9.140;2022-09-03T12:29:58;0.20;;;0.20;;
10418;SDS011;5256;48.728;9.140;2022-09-03T12:32:27;0.20;;;0.20;;
10418;SDS011;5256;48.728;9.140;2022-09-03T12:34:56;0.23;;;0.23;;
10418;SDS011;5256;48.728;9.140;2022-09-03T12:37:25;0.27;;;0.27;;
10418;SDS011;5256;48.728;9.140;2022-09-03T12:39:59;0.20;;;0.20;;
10418;SDS011;5256;48.728;9.140;2022-09-03T12:42:25;0.30;;;0.30;;
10418;SDS011;5256;48.728;9.140;2022-09-03T12:44:53;0.30;;;0.30;;
10418;SDS011;5256;48.728;9.140;2022-09-03T12:47:21;0.30;;;0.30;;
10418;SDS011;5256;48.728;9.140;2022-09-03T12:49:49;0.30;;;0.30;;
10418;SDS011;5256;48.728;9.140;2022-09-03T12:52:29;0.30;;;0.30;;
10418;SDS011;5256;48.728;9.140;2022-09-03T12:57:53;0.30;;;0.30;;
10418;SDS011;5256;48.728;9.140;2022-09-03T13:00:20;0.30;;;0.30;;
10418;SDS011;5256;48.728;9.140;2022-09-03T13:05:18;0.20;;;0.20;;
10418;SDS011;5256;48.728;9.140;2022-09-03T13:07:49;0.30;;;0.30;;
10418;SDS011;5256;48.728;9.140;2022-09-03T13:10:24;0.30;;;0.30;;
10418;SDS011;5256;48.728;9.140;2022-09-03T13:12:57;0.30;;;0.30;;
10418;SDS011;5256;48.728;9.140;2022-09-03T13:15:26;0.30;;;0.30;;
10418;SDS011;5256;48.728;9.140;2022-09-03T13:21:17;0.20;;;0.20;;
10418;SDS011;5256;48.728;9.140;2022-09-03T13:31:34;0.30;;;0.30;;
10418;SDS011;5256;48.728;9.140;2022-09-03T13:34:09;0.30;;;0.30;;
10418;SDS011;5256;48.728;9.140;2022-09-03T13:36:50;0.20;;;0.20;;
10418;SDS011;5256;48.728;9.140;2022-09-03T13:39:27;0.20;;;0.20;;
10418;SDS011;5256;48.728;9.140;2022-09-03T13:42:21;0.20;;;0.20;;
10418;SDS011;5256;48.728;9.140;2022-09-03T13:51:00;0.20;;;0.20;;
10418;SDS011;5256;48.728;9.140;2022-09-03T13:56:05;0.20;;;0.20;;
10418;SDS011;5256;48.728;9.140;2022-09-03T14:01:43;0.27;;;0.27;;
10418;SDS011;5256;48.728;9.140;2022-09-03T14:04:50;0.20;;;0.20;;
10418;SDS011;5256;48.728;9.140;2022-09-03T14:10:16;0.20;;;0.20;;
10418;SDS011;5256;48.728;9.140;2022-09-03T14:12:48;0.10;;;0.10;;
10418;SDS011;5256;48.728;9.140;2022-09-03T14:15:23;0.20;;;0.20;;
10418;SDS011;5256;48.728;9.140;2022-09-03T14:18:12;0.20;;;0.20;;
10418;SDS011;5256;48.728;9.140;2022-09-03T14:21:03;0.20;;;0.20;;
10418;SDS011;5256;48.728;9.140;2022-09-03T14:23:45;0.20;;;0.20;;
10418;SDS011;5256;48.728;9.140;2022-09-03T14:26:23;0.20;;;0.20;;
10418;SDS011;5256;48.728;9.140;2022-09-03T14:29:03;0.13;;;0.13;;
10418;SDS011;5256;48.728;9.140;2022-09-03T14:31:37;0.20;;;0.20;;
10418;SDS011;5256;48.728;9.140;2022-09-03T14:37:04;0.20;;;0.20;;
10418;SDS011;5256;48.728;9.140;2022-09-03T14:39:54;0.20;;;0.20;;
10418;SDS011;5256;48.728;9.140;2022-09-03T14:53:25;0.20;;;0.20;;
10418;SDS011;5256;48.728;9.140;2022-09-03T15:02:16;0.10;;;0.10;;
10418;SDS011;5256;48.728;9.140;2022-09-03T15:07:58;0.10;;;0.10;;
10418;SDS011;5256;48.728;9.140;2022-09-03T15:13:21;0.10;;;0.10;;
10418;SDS011;5256;48.728;9.140;2022-09-03T15:18:37;0.10;;;0.10;;
10418;SDS011;5256;48.728;9.140;2022-09-03T15:29:02;0.10;;;0.10;;
10418;SDS011;5256;48.728;9.140;2022-09-03T15:37:26;0.00;;;0.00;;
10418;SDS011;5256;48.728;9.140;2022-09-03T15:40:08;0.10;;;0.10;;
10418;SDS011;5256;48.728;9.140;2022-09-03T15:42:44;0.10;;;0.10;;
10418;SDS011;5256;48.728;9.140;2022-09-03T15:45:21;0.10;;;0.10;;
10418;SDS011;5256;48.728;9.140;2022-09-03T15:48:07;0.10;;;0.10;;
10418;SDS011;5256;48.728;9.140;2022-09-03T15:50:54;0.00;;;0.00;;
10418;SDS011;5256;48.728;9.140;2022-09-03T15:59:18;0.10;;;0.10;;
10418;SDS011;5256;48.728;9.140;2022-09-03T16:02:14;0.10;;;0.10;;
10418;SDS011;5256;48.728;9.140;2022-09-03T16:15:50;0.10;;;0.10;;
10418;SDS011;5256;48.728;9.140;2022-09-03T16:18:31;0.10;;;0.10;;
10418;SDS011;5256;48.728;9.140;2022-09-03T16:24:23;0.13;;;0.13;;
10418;SDS011;5256;48.728;9.140;2022-09-03T16:26:52;0.10;;;0.10;;
10418;SDS011;5256;48.728;9.140;2022-09-03T16:29:25;0.20;;;0.20;;
10418;SDS011;5256;48.728;9.140;2022-09-03T16:32:11;0.20;;;0.20;;
10418;SDS011;5256;48.728;9.140;2022-09-03T16:40:35;0.13;;;0.13;;
10418;SDS011;5256;48.728;9.140;2022-09-03T16:43:56;0.20;;;0.20;;
10418;SDS011;5256;48.728;9.140;2022-09-03T16:46:14;0.20;;;0.20;;
10418;SDS011;5256;48.728;9.140;2022-09-03T16:51:31;0.10;;;0.10;;
10418;SDS011;5256;48.728;9.140;2022-09-03T17:04:59;0.20;;;0.20;;
10418;SDS011;5256;48.728;9.140;2022-09-03T17:18:54;0.20;;;0.20;;
10418;SDS011;5256;48.728;9.140;2022-09-03T17:24:36;0.20;;;0.20;;
10418;SDS011;5256;48.728;9.140;2022-09-03T17:27:04;0.10;;;0.10;;
10418;SDS011;5256;48.728;9.140;2022-09-03T17:29:56;0.20;;;0.20;;
10418;SDS011;5256;48.728;9.140;2022-09-03T17:35:55;0.20;;;0.20;;
10418;SDS011;5256;48.728;9.140;2022-09-03T17:38:36;0.10;;;0.10;;
10418;SDS011;5256;48.728;9.140;2022-09-03T17:41:43;0.20;;;0.20;;
10418;SDS011;5256;48.728;9.140;2022-09-03T17:49:22;0.20;;;0.20;;
10418;SDS011;5256;48.728;9.140;2022-09-03T17:54:41;0.20;;;0.20;;
10418;SDS011;5256;48.728;9.140;2022-09-03T17:57:14;0.20;;;0.20;;
10418;SDS011;5256;48.728;9.140;2022-09-03T18:00:03;0.30;;;0.30;;
10418;SDS011;5256;48.728;9.140;2022-09-03T18:02:38;0.20;;;0.20;;
10418;SDS011;5256;48.728;9.140;2022-09-03T18:07:42;0.20;;;0.20;;
10418;SDS011;5256;48.728;9.140;2022-09-03T18:18:26;0.20;;;0.20;;
10418;SDS011;5256;48.728;9.140;2022-09-03T18:20:54;0.20;;;0.20;;
10418;SDS011;5256;48.728;9.140;2022-09-03T18:26:58;0.20;;;0.20;;
10418;SDS011;5256;48.728;9.140;2022-09-03T18:29:46;0.20;;;0.20;;
10418;SDS011;5256;48.728;9.140;2022-09-03T18:32:36;0.20;;;0.20;;
10418;SDS011;5256;48.728;9.140;2022-09-03T18:35:20;0.20;;;0.20;;
10418;SDS011;5256;48.728;9.140;2022-09-03T18:38:06;0.20;;;0.20;;
10418;SDS011;5256;48.728;9.140;2022-09-03T18:40:58;0.20;;;0.20;;
10418;SDS011;5256;48.728;9.140;2022-09-03T18:44:08;0.10;;;0.10;;
10418;SDS011;5256;48.728;9.140;2022-09-03T18:47:19;0.20;;;0.20;;
10418;SDS011;5256;48.728;9.140;2022-09-03T18:54:06;0.20;;;0.20;;
10418;SDS011;5256;48.728;9.140;2022-09-03T18:57:13;0.20;;;0.20;;
10418;SDS011;5256;48.728;9.140;2022-09-03T19:00:11;0.20;;;0.20;;
10418;SDS011;5256;48.728;9.140;2022-09-03T19:21:08;0.20;;;0.20;;
10418;SDS011;5256;48.728;9.140;2022-09-03T19:24:10;0.20;;;0.20;;
10418;SDS011;5256;48.728;9.140;2022-09-03T19:30:17;0.20;;;0.20;;
10418;SDS011;5256;48.728;9.140;2022-09-03T19:36:03;0.13;;;0.13;;
10418;SDS011;5256;48.728;9.140;2022-09-03T19:39:33;0.20;;;0.20;;
10418;SDS011;5256;48.728;9.140;2022-09-03T19:42:19;0.20;;;0.20;;
10418;SDS011;5256;48.728;9.140;2022-09-03T19:55:09;0.20;;;0.20;;
10418;SDS011;5256;48.728;9.140;2022-09-03T19:57:58;0.20;;;0.20;;
10418;SDS011;5256;48.728;9.140;2022-09-03T20:00:43;0.30;;;0.30;;
10418;SDS011;5256;48.728;9.140;2022-09-03T20:03:28;0.20;;;0.20;;
10418;SDS011;5256;48.728;9.140;2022-09-03T20:06:14;0.20;;;0.20;;
10418;SDS011;5256;48.728;9.140;2022-09-03T20:09:01;0.20;;;0.20;;
10418;SDS011;5256;48.728;9.140;2022-09-03T20:11:51;0.30;;;0.30;;
10418;SDS011;5256;48.728;9.140;2022-09-03T20:14:21;0.30;;;0.30;;
10418;SDS011;5256;48.728;9.140;2022-09-03T20:21:58;0.20;;;0.20;;
10418;SDS011;5256;48.728;9.140;2022-09-03T20:24:48;0.20;;;0.20;;
10418;SDS011;5256;48.728;9.140;2022-09-03T20:30:03;0.40;;;0.40;;
10418;SDS011;5256;48.728;9.140;2022-09-03T20:35:47;0.20;;;0.20;;
10418;SDS011;5256;48.728;9.140;2022-09-03T20:46:53;0.20;;;0.20;;
10418;SDS011;5256;48.728;9.140;2022-09-03T20:52:02;0.30;;;0.30;;
10418;SDS011;5256;48.728;9.140;2022-09-03T20:57:50;0.20;;;0.20;;
10418;SDS011;5256;48.728;9.140;2022-09-03T21:00:38;0.20;;;0.20;;
10418;SDS011;5256;48.728;9.140;2022-09-03T21:03:17;0.23;;;0.23;;
10418;SDS011;5256;48.728;9.140;2022-09-03T21:11:20;0.20;;;0.20;;
10418;SDS011;5256;48.728;9.140;2022-09-03T21:14:16;0.20;;;0.20;;
10418;SDS011;5256;48.728;9.140;2022-09-03T21:16:50;0.20;;;0.20;;
10418;SDS011;5256;48.728;9.140;2022-09-03T21:20:31;0.20;;;0.20;;
10418;SDS011;5256;48.728;9.140;2022-09-03T21:25:23;0.20;;;0.20;;
10418;SDS011;5256;48.728;9.140;2022-09-03T21:28:08;0.20;;;0.20;;